sensor_id;sensor_type;location;lat;lon;timestamp;P1;durP1;ratioP1;P2;durP2;ratioP2
43877;SDS011;29815;48.184;11.268;2022-11-15T00:00:54;14.75;;;10.65;;
43877;SDS011;29815;48.184;11.268;2022-11-15T00:03:43;17.10;;;10.85;;
43877;SDS011;29815;48.184;11.268;2022-11-15T00:06:33;12.38;;;9.45;;
43877;SDS011;29815;48.184;11.268;2022-11-15T00:09:21;12.85;;;9.60;;
43877;SDS011;29815;48.184;11.268;2022-11-15T00:12:09;12.57;;;9.27;;
43877;SDS011;29815;48.184;11.268;2022-11-15T00:14:58;10.77;;;9.52;;
43877;SDS011;29815;48.184;11.268;2022-11-15T00:17:48;11.77;;;8.98;;
43877;SDS011;29815;48.184;11.268;2022-11-15T00:20:36;10.23;;;8.00;;
43877;SDS011;29815;48.184;11.268;2022-11-15T00:23:27;9.73;;;8.68;;
43877;SDS011;29815;48.184;11.268;2022-11-15T00:26:15;12.80;;;9.63;;
43877;SDS011;29815;48.184;11.268;2022-11-15T00:29:03;12.82;;;8.60;;
43877;SDS011;29815;48.184;11.268;2022-11-15T00:31:52;11.50;;;9.52;;
43877;SDS011;29815;48.184;11.268;2022-11-15T00:34:40;11.40;;;8.48;;
43877;SDS011;29815;48.184;11.268;2022-11-15T00:37:28;13.60;;;10.15;;
43877;SDS011;29815;48.184;11.268;2022-11-15T00:40:17;12.07;;;9.38;;
43877;SDS011;29815;48.184;11.268;2022-11-15T00:43:05;12.95;;;10.77;;
43877;SDS011;29815;48.184;11.268;2022-11-15T00:45:53;15.35;;;10.32;;
43877;SDS011;29815;48.184;11.268;2022-11-15T00:48:41;12.10;;;9.73;;
43877;SDS011;29815;48.184;11.268;2022-11-15T00:51:29;12.63;;;9.57;;
43877;SDS011;29815;48.184;11.268;2022-11-15T00:54:18;13.88;;;9.80;;
43877;SDS011;29815;48.184;11.268;2022-11-15T00:57:07;12.05;;;9.75;;
43877;SDS011;29815;48.184;11.268;2022-11-15T00:59:56;13.52;;;10.13;;
43877;SDS011;29815;48.184;11.268;2022-11-15T01:02:44;15.23;;;9.90;;
43877;SDS011;29815;48.184;11.268;2022-11-15T01:05:32;13.52;;;10.50;;
43877;SDS011;29815;48.184;11.268;2022-11-15T01:08:20;11.02;;;9.35;;
43877;SDS011;29815;48.184;11.268;2022-11-15T01:11:09;12.32;;;8.90;;
43877;SDS011;29815;48.184;11.268;2022-11-15T01:14:00;13.07;;;9.73;;
43877;SDS011;29815;48.184;11.268;2022-11-15T01:16:49;12.32;;;10.05;;
43877;SDS011;29815;48.184;11.268;2022-11-15T01:19:37;11.98;;;9.15;;
43877;SDS011;29815;48.184;11.268;2022-11-15T01:22:25;13.43;;;10.30;;
43877;SDS011;29815;48.184;11.268;2022-11-15T01:25:13;11.02;;;8.40;;
43877;SDS011;29815;48.184;11.268;2022-11-15T01:28:01;13.32;;;9.10;;
43877;SDS011;29815;48.184;11.268;2022-11-15T01:30:51;12.80;;;9.27;;
43877;SDS011;29815;48.184;11.268;2022-11-15T01:33:39;13.20;;;8.88;;
43877;SDS011;29815;48.184;11.268;2022-11-15T01:36:28;12.25;;;9.18;;
43877;SDS011;29815;48.184;11.268;2022-11-15T01:39:15;11.25;;;7.93;;
43877;SDS011;29815;48.184;11.268;2022-11-15T01:42:04;10.93;;;8.38;;
43877;SDS011;29815;48.184;11.268;2022-11-15T01:44:52;11.05;;;9.07;;
43877;SDS011;29815;48.184;11.268;2022-11-15T01:47:42;12.20;;;9.45;;
43877;SDS011;29815;48.184;11.268;2022-11-15T01:50:35;14.35;;;9.27;;
43877;SDS011;29815;48.184;11.268;2022-11-15T01:53:23;13.93;;;8.82;;
43877;SDS011;29815;48.184;11.268;2022-11-15T01:56:15;12.57;;;9.10;;
43877;SDS011;29815;48.184;11.268;2022-11-15T01:59:07;14.07;;;8.68;;
43877;SDS011;29815;48.184;11.268;2022-11-15T02:01:57;10.82;;;8.10;;
43877;SDS011;29815;48.184;11.268;2022-11-15T02:04:47;12.30;;;8.73;;
43877;SDS011;29815;48.184;11.268;2022-11-15T02:07:36;12.70;;;9.55;;
43877;SDS011;29815;48.184;11.268;2022-11-15T02:10:24;16.73;;;11.10;;
43877;SDS011;29815;48.184;11.268;2022-11-15T02:13:13;15.00;;;10.18;;
43877;SDS011;29815;48.184;11.268;2022-11-15T02:16:04;14.55;;;10.70;;
43877;SDS011;29815;48.184;11.268;2022-11-15T02:19:09;9.40;;;7.95;;
43877;SDS011;29815;48.184;11.268;2022-11-15T13:06:54;7.13;;;4.10;;
43877;SDS011;29815;48.184;11.268;2022-11-15T13:15:33;6.88;;;3.55;;
43877;SDS011;29815;48.184;11.268;2022-11-15T13:18:34;9.02;;;4.28;;
43877;SDS011;29815;48.184;11.268;2022-11-15T13:21:21;3.90;;;3.35;;
43877;SDS011;29815;48.184;11.268;2022-11-15T13:24:14;7.70;;;5.43;;
43877;SDS011;29815;48.184;11.268;2022-11-15T13:26:45;4.82;;;4.05;;
43877;SDS011;29815;48.184;11.268;2022-11-15T13:29:18;7.80;;;3.95;;
43877;SDS011;29815;48.184;11.268;2022-11-15T13:31:48;6.38;;;3.88;;
43877;SDS011;29815;48.184;11.268;2022-11-15T13:34:24;6.15;;;3.92;;
43877;SDS011;29815;48.184;11.268;2022-11-15T13:37:28;4.90;;;3.92;;
43877;SDS011;29815;48.184;11.268;2022-11-15T13:40:24;6.00;;;3.47;;
43877;SDS011;29815;48.184;11.268;2022-11-15T13:42:57;4.82;;;2.80;;
43877;SDS011;29815;48.184;11.268;2022-11-15T13:45:27;4.97;;;4.15;;
43877;SDS011;29815;48.184;11.268;2022-11-15T13:47:57;5.43;;;3.45;;
43877;SDS011;29815;48.184;11.268;2022-11-15T13:50:27;6.50;;;4.13;;
43877;SDS011;29815;48.184;11.268;2022-11-15T13:53:02;8.27;;;4.45;;
43877;SDS011;29815;48.184;11.268;2022-11-15T13:55:34;7.25;;;4.38;;
43877;SDS011;29815;48.184;11.268;2022-11-15T13:58:04;5.70;;;3.75;;
43877;SDS011;29815;48.184;11.268;2022-11-15T14:00:35;5.70;;;4.28;;
43877;SDS011;29815;48.184;11.268;2022-11-15T14:03:12;6.28;;;4.47;;
43877;SDS011;29815;48.184;11.268;2022-11-15T14:06:00;6.82;;;4.13;;
43877;SDS011;29815;48.184;11.268;2022-11-15T14:08:39;6.45;;;4.65;;
43877;SDS011;29815;48.184;11.268;2022-11-15T14:11:15;6.72;;;4.13;;
43877;SDS011;29815;48.184;11.268;2022-11-15T14:16:51;4.38;;;3.92;;
43877;SDS011;29815;48.184;11.268;2022-11-15T14:19:33;5.63;;;4.70;;
43877;SDS011;29815;48.184;11.268;2022-11-15T14:22:09;4.90;;;4.38;;
43877;SDS011;29815;48.184;11.268;2022-11-15T14:25:13;7.18;;;5.20;;
43877;SDS011;29815;48.184;11.268;2022-11-15T14:30:45;6.60;;;4.45;;
43877;SDS011;29815;48.184;11.268;2022-11-15T14:33:19;6.90;;;4.50;;
43877;SDS011;29815;48.184;11.268;2022-11-15T14:35:52;6.88;;;4.63;;
43877;SDS011;29815;48.184;11.268;2022-11-15T14:38:23;5.68;;;3.88;;
43877;SDS011;29815;48.184;11.268;2022-11-15T14:40:53;5.75;;;4.80;;
43877;SDS011;29815;48.184;11.268;2022-11-15T14:43:25;5.60;;;4.70;;
43877;SDS011;29815;48.184;11.268;2022-11-15T14:45:54;7.13;;;5.13;;
43877;SDS011;29815;48.184;11.268;2022-11-15T14:48:24;8.23;;;4.65;;
43877;SDS011;29815;48.184;11.268;2022-11-15T14:50:54;7.45;;;4.93;;
43877;SDS011;29815;48.184;11.268;2022-11-15T14:53:23;8.50;;;5.50;;
43877;SDS011;29815;48.184;11.268;2022-11-15T14:55:52;6.22;;;4.30;;
43877;SDS011;29815;48.184;11.268;2022-11-15T14:58:22;7.88;;;4.90;;
43877;SDS011;29815;48.184;11.268;2022-11-15T15:00:53;7.82;;;5.10;;
43877;SDS011;29815;48.184;11.268;2022-11-15T15:03:22;10.18;;;5.85;;
43877;SDS011;29815;48.184;11.268;2022-11-15T15:05:51;6.03;;;5.32;;
43877;SDS011;29815;48.184;11.268;2022-11-15T15:08:21;9.15;;;6.15;;
43877;SDS011;29815;48.184;11.268;2022-11-15T15:10:51;8.35;;;6.28;;
43877;SDS011;29815;48.184;11.268;2022-11-15T15:13:21;17.08;;;6.93;;
43877;SDS011;29815;48.184;11.268;2022-11-15T15:15:53;8.65;;;6.13;;
43877;SDS011;29815;48.184;11.268;2022-11-15T15:18:23;8.23;;;6.00;;
43877;SDS011;29815;48.184;11.268;2022-11-15T15:20:54;8.95;;;6.63;;
43877;SDS011;29815;48.184;11.268;2022-11-15T15:23:27;7.68;;;6.00;;
43877;SDS011;29815;48.184;11.268;2022-11-15T15:25:58;10.15;;;6.18;;
43877;SDS011;29815;48.184;11.268;2022-11-15T15:28:29;8.25;;;6.13;;
43877;SDS011;29815;48.184;11.268;2022-11-15T15:31:01;7.95;;;5.95;;
43877;SDS011;29815;48.184;11.268;2022-11-15T15:33:31;10.13;;;6.75;;
43877;SDS011;29815;48.184;11.268;2022-11-15T15:36:01;7.68;;;6.60;;
43877;SDS011;29815;48.184;11.268;2022-11-15T15:38:30;10.73;;;6.75;;
43877;SDS011;29815;48.184;11.268;2022-11-15T15:41:00;8.35;;;6.63;;
43877;SDS011;29815;48.184;11.268;2022-11-15T15:43:32;10.45;;;7.20;;
43877;SDS011;29815;48.184;11.268;2022-11-15T15:46:01;8.48;;;6.70;;
43877;SDS011;29815;48.184;11.268;2022-11-15T15:48:31;10.20;;;6.40;;
43877;SDS011;29815;48.184;11.268;2022-11-15T15:51:04;10.82;;;6.30;;
43877;SDS011;29815;48.184;11.268;2022-11-15T15:53:46;10.98;;;7.75;;
43877;SDS011;29815;48.184;11.268;2022-11-15T15:56:16;14.60;;;7.25;;
43877;SDS011;29815;48.184;11.268;2022-11-15T15:58:47;11.93;;;7.45;;
43877;SDS011;29815;48.184;11.268;2022-11-15T16:01:16;8.32;;;6.63;;
43877;SDS011;29815;48.184;11.268;2022-11-15T16:03:46;9.15;;;6.90;;
43877;SDS011;29815;48.184;11.268;2022-11-15T16:06:25;11.48;;;6.90;;
43877;SDS011;29815;48.184;11.268;2022-11-15T16:09:05;7.55;;;5.60;;
43877;SDS011;29815;48.184;11.268;2022-11-15T16:11:43;7.32;;;6.32;;
43877;SDS011;29815;48.184;11.268;2022-11-15T16:14:15;10.93;;;6.47;;
43877;SDS011;29815;48.184;11.268;2022-11-15T16:16:45;8.63;;;6.70;;
43877;SDS011;29815;48.184;11.268;2022-11-15T16:19:14;9.65;;;6.90;;
43877;SDS011;29815;48.184;11.268;2022-11-15T16:21:44;8.98;;;7.28;;
43877;SDS011;29815;48.184;11.268;2022-11-15T16:24:13;9.35;;;6.72;;
43877;SDS011;29815;48.184;11.268;2022-11-15T16:26:43;8.88;;;6.93;;
43877;SDS011;29815;48.184;11.268;2022-11-15T16:29:15;9.10;;;6.18;;
43877;SDS011;29815;48.184;11.268;2022-11-15T16:31:45;12.20;;;7.38;;
43877;SDS011;29815;48.184;11.268;2022-11-15T16:34:14;8.40;;;6.55;;
43877;SDS011;29815;48.184;11.268;2022-11-15T16:36:44;10.23;;;7.63;;
43877;SDS011;29815;48.184;11.268;2022-11-15T16:39:14;11.85;;;8.63;;
43877;SDS011;29815;48.184;11.268;2022-11-15T16:41:45;12.98;;;10.02;;
43877;SDS011;29815;48.184;11.268;2022-11-15T16:44:16;14.25;;;10.15;;
43877;SDS011;29815;48.184;11.268;2022-11-15T16:46:45;22.48;;;9.07;;
43877;SDS011;29815;48.184;11.268;2022-11-15T16:49:18;18.27;;;9.43;;
43877;SDS011;29815;48.184;11.268;2022-11-15T16:51:49;15.00;;;9.35;;
43877;SDS011;29815;48.184;11.268;2022-11-15T16:54:19;12.00;;;9.57;;
43877;SDS011;29815;48.184;11.268;2022-11-15T16:56:49;17.42;;;10.75;;
43877;SDS011;29815;48.184;11.268;2022-11-15T16:59:26;22.10;;;14.07;;
43877;SDS011;29815;48.184;11.268;2022-11-15T17:02:07;18.88;;;10.63;;
43877;SDS011;29815;48.184;11.268;2022-11-15T17:04:40;30.00;;;17.00;;
43877;SDS011;29815;48.184;11.268;2022-11-15T17:07:10;29.67;;;18.13;;
43877;SDS011;29815;48.184;11.268;2022-11-15T17:09:40;34.05;;;18.90;;
43877;SDS011;29815;48.184;11.268;2022-11-15T17:12:10;27.90;;;15.65;;
43877;SDS011;29815;48.184;11.268;2022-11-15T17:14:42;30.52;;;17.25;;
43877;SDS011;29815;48.184;11.268;2022-11-15T17:17:12;32.58;;;16.60;;
43877;SDS011;29815;48.184;11.268;2022-11-15T17:19:42;22.42;;;14.18;;
43877;SDS011;29815;48.184;11.268;2022-11-15T17:22:11;22.00;;;13.60;;
43877;SDS011;29815;48.184;11.268;2022-11-15T17:24:41;23.83;;;14.43;;
43877;SDS011;29815;48.184;11.268;2022-11-15T17:27:10;27.63;;;14.07;;
43877;SDS011;29815;48.184;11.268;2022-11-15T17:29:41;28.52;;;16.83;;
43877;SDS011;29815;48.184;11.268;2022-11-15T17:32:11;26.25;;;14.98;;
43877;SDS011;29815;48.184;11.268;2022-11-15T17:34:40;24.40;;;14.35;;
43877;SDS011;29815;48.184;11.268;2022-11-15T17:37:10;21.15;;;13.80;;
43877;SDS011;29815;48.184;11.268;2022-11-15T17:39:39;18.58;;;15.35;;
43877;SDS011;29815;48.184;11.268;2022-11-15T17:42:09;20.48;;;15.85;;
43877;SDS011;29815;48.184;11.268;2022-11-15T17:44:43;21.48;;;15.82;;
43877;SDS011;29815;48.184;11.268;2022-11-15T17:47:12;21.90;;;15.20;;
43877;SDS011;29815;48.184;11.268;2022-11-15T17:49:42;17.70;;;12.77;;
43877;SDS011;29815;48.184;11.268;2022-11-15T17:52:11;18.27;;;13.00;;
43877;SDS011;29815;48.184;11.268;2022-11-15T17:54:41;17.15;;;12.45;;
43877;SDS011;29815;48.184;11.268;2022-11-15T17:57:10;16.73;;;13.38;;
43877;SDS011;29815;48.184;11.268;2022-11-15T17:59:39;20.10;;;12.63;;
43877;SDS011;29815;48.184;11.268;2022-11-15T18:02:10;19.88;;;13.02;;
43877;SDS011;29815;48.184;11.268;2022-11-15T18:04:40;15.93;;;12.45;;
43877;SDS011;29815;48.184;11.268;2022-11-15T18:07:09;19.63;;;13.07;;
43877;SDS011;29815;48.184;11.268;2022-11-15T18:09:40;20.48;;;14.25;;
43877;SDS011;29815;48.184;11.268;2022-11-15T18:12:11;18.92;;;13.60;;
43877;SDS011;29815;48.184;11.268;2022-11-15T18:14:40;17.55;;;11.88;;
43877;SDS011;29815;48.184;11.268;2022-11-15T18:17:11;19.95;;;14.45;;
43877;SDS011;29815;48.184;11.268;2022-11-15T18:19:41;19.30;;;12.95;;
43877;SDS011;29815;48.184;11.268;2022-11-15T18:22:10;19.77;;;13.48;;
43877;SDS011;29815;48.184;11.268;2022-11-15T18:24:40;20.67;;;14.05;;
43877;SDS011;29815;48.184;11.268;2022-11-15T18:27:11;23.85;;;15.38;;
43877;SDS011;29815;48.184;11.268;2022-11-15T18:29:40;20.05;;;14.93;;
43877;SDS011;29815;48.184;11.268;2022-11-15T18:32:12;21.40;;;14.77;;
43877;SDS011;29815;48.184;11.268;2022-11-15T18:34:44;16.23;;;13.40;;
43877;SDS011;29815;48.184;11.268;2022-11-15T18:37:13;15.18;;;12.30;;
43877;SDS011;29815;48.184;11.268;2022-11-15T18:39:42;23.23;;;14.32;;
43877;SDS011;29815;48.184;11.268;2022-11-15T18:42:19;26.27;;;17.00;;
43877;SDS011;29815;48.184;11.268;2022-11-15T18:44:48;21.88;;;14.50;;
43877;SDS011;29815;48.184;11.268;2022-11-15T18:47:19;16.65;;;13.70;;
43877;SDS011;29815;48.184;11.268;2022-11-15T18:49:49;21.52;;;15.20;;
43877;SDS011;29815;48.184;11.268;2022-11-15T18:52:18;20.73;;;15.10;;
43877;SDS011;29815;48.184;11.268;2022-11-15T18:54:48;21.90;;;15.65;;
43877;SDS011;29815;48.184;11.268;2022-11-15T18:57:18;23.40;;;17.33;;
43877;SDS011;29815;48.184;11.268;2022-11-15T18:59:47;21.20;;;18.08;;
43877;SDS011;29815;48.184;11.268;2022-11-15T19:02:17;22.95;;;17.27;;
43877;SDS011;29815;48.184;11.268;2022-11-15T19:04:48;20.98;;;16.33;;
43877;SDS011;29815;48.184;11.268;2022-11-15T19:07:17;25.83;;;17.23;;
43877;SDS011;29815;48.184;11.268;2022-11-15T19:09:47;19.20;;;15.48;;
43877;SDS011;29815;48.184;11.268;2022-11-15T19:12:16;21.75;;;15.93;;
43877;SDS011;29815;48.184;11.268;2022-11-15T19:14:46;28.07;;;19.40;;
43877;SDS011;29815;48.184;11.268;2022-11-15T19:17:15;30.75;;;21.95;;
43877;SDS011;29815;48.184;11.268;2022-11-15T19:19:46;33.88;;;24.17;;
43877;SDS011;29815;48.184;11.268;2022-11-15T19:22:16;34.47;;;26.15;;
43877;SDS011;29815;48.184;11.268;2022-11-15T19:24:45;26.23;;;20.85;;
43877;SDS011;29815;48.184;11.268;2022-11-15T19:27:14;34.25;;;25.38;;
43877;SDS011;29815;48.184;11.268;2022-11-15T19:29:44;25.92;;;20.67;;
43877;SDS011;29815;48.184;11.268;2022-11-15T19:32:14;28.33;;;24.25;;
43877;SDS011;29815;48.184;11.268;2022-11-15T19:34:43;29.15;;;23.45;;
43877;SDS011;29815;48.184;11.268;2022-11-15T19:37:14;29.23;;;20.85;;
43877;SDS011;29815;48.184;11.268;2022-11-15T19:39:43;27.02;;;20.40;;
43877;SDS011;29815;48.184;11.268;2022-11-15T19:42:13;24.70;;;18.55;;
43877;SDS011;29815;48.184;11.268;2022-11-15T19:44:42;23.98;;;18.92;;
43877;SDS011;29815;48.184;11.268;2022-11-15T19:47:12;23.63;;;19.40;;
43877;SDS011;29815;48.184;11.268;2022-11-15T19:49:41;22.50;;;18.05;;
43877;SDS011;29815;48.184;11.268;2022-11-15T19:52:12;26.70;;;18.15;;
43877;SDS011;29815;48.184;11.268;2022-11-15T19:54:43;26.20;;;18.20;;
43877;SDS011;29815;48.184;11.268;2022-11-15T19:57:15;24.83;;;18.05;;
43877;SDS011;29815;48.184;11.268;2022-11-15T19:59:44;26.60;;;20.52;;
43877;SDS011;29815;48.184;11.268;2022-11-15T20:02:14;34.30;;;24.20;;
43877;SDS011;29815;48.184;11.268;2022-11-15T20:04:43;36.28;;;24.75;;
43877;SDS011;29815;48.184;11.268;2022-11-15T20:07:14;30.45;;;25.30;;
43877;SDS011;29815;48.184;11.268;2022-11-15T20:09:44;30.38;;;22.52;;
43877;SDS011;29815;48.184;11.268;2022-11-15T20:12:16;26.52;;;20.77;;
43877;SDS011;29815;48.184;11.268;2022-11-15T20:14:45;27.88;;;22.02;;
43877;SDS011;29815;48.184;11.268;2022-11-15T20:17:15;34.55;;;24.85;;
43877;SDS011;29815;48.184;11.268;2022-11-15T20:19:44;31.88;;;24.20;;
43877;SDS011;29815;48.184;11.268;2022-11-15T20:22:15;31.75;;;23.30;;
43877;SDS011;29815;48.184;11.268;2022-11-15T20:24:45;28.20;;;22.88;;
43877;SDS011;29815;48.184;11.268;2022-11-15T20:27:14;31.80;;;24.10;;
43877;SDS011;29815;48.184;11.268;2022-11-15T20:29:44;32.42;;;24.60;;
43877;SDS011;29815;48.184;11.268;2022-11-15T20:32:15;30.07;;;21.17;;
43877;SDS011;29815;48.184;11.268;2022-11-15T20:34:44;32.17;;;22.95;;
43877;SDS011;29815;48.184;11.268;2022-11-15T20:37:21;27.05;;;20.95;;
43877;SDS011;29815;48.184;11.268;2022-11-15T20:39:51;31.65;;;24.08;;
43877;SDS011;29815;48.184;11.268;2022-11-15T20:42:20;29.75;;;22.58;;
43877;SDS011;29815;48.184;11.268;2022-11-15T20:44:50;35.28;;;25.95;;
43877;SDS011;29815;48.184;11.268;2022-11-15T20:47:19;29.10;;;22.67;;
43877;SDS011;29815;48.184;11.268;2022-11-15T20:49:55;31.85;;;21.88;;
43877;SDS011;29815;48.184;11.268;2022-11-15T20:52:46;27.92;;;22.05;;
43877;SDS011;29815;48.184;11.268;2022-11-15T20:55:15;23.55;;;20.17;;
43877;SDS011;29815;48.184;11.268;2022-11-15T20:57:46;28.77;;;21.98;;
43877;SDS011;29815;48.184;11.268;2022-11-15T21:00:16;26.05;;;21.23;;
43877;SDS011;29815;48.184;11.268;2022-11-15T21:02:48;24.83;;;20.25;;
43877;SDS011;29815;48.184;11.268;2022-11-15T21:05:18;27.20;;;20.42;;
43877;SDS011;29815;48.184;11.268;2022-11-15T21:07:49;26.65;;;18.67;;
43877;SDS011;29815;48.184;11.268;2022-11-15T21:10:18;29.90;;;20.92;;
43877;SDS011;29815;48.184;11.268;2022-11-15T21:13:06;27.35;;;19.13;;
43877;SDS011;29815;48.184;11.268;2022-11-15T21:15:35;26.88;;;21.00;;
43877;SDS011;29815;48.184;11.268;2022-11-15T21:18:05;29.10;;;23.15;;
43877;SDS011;29815;48.184;11.268;2022-11-15T21:20:34;24.73;;;20.63;;
43877;SDS011;29815;48.184;11.268;2022-11-15T21:23:05;28.73;;;21.73;;
43877;SDS011;29815;48.184;11.268;2022-11-15T21:25:34;28.23;;;20.30;;
43877;SDS011;29815;48.184;11.268;2022-11-15T21:28:04;27.25;;;20.83;;
43877;SDS011;29815;48.184;11.268;2022-11-15T21:30:33;24.35;;;15.90;;
43877;SDS011;29815;48.184;11.268;2022-11-15T21:33:03;21.90;;;16.10;;
43877;SDS011;29815;48.184;11.268;2022-11-15T21:35:32;19.33;;;16.00;;
43877;SDS011;29815;48.184;11.268;2022-11-15T21:38:03;20.13;;;14.02;;
43877;SDS011;29815;48.184;11.268;2022-11-15T21:40:33;19.70;;;14.55;;
43877;SDS011;29815;48.184;11.268;2022-11-15T21:43:03;18.63;;;14.85;;
43877;SDS011;29815;48.184;11.268;2022-11-15T21:45:32;20.55;;;14.85;;
43877;SDS011;29815;48.184;11.268;2022-11-15T21:48:02;19.95;;;16.88;;
43877;SDS011;29815;48.184;11.268;2022-11-15T21:50:33;20.60;;;15.45;;
43877;SDS011;29815;48.184;11.268;2022-11-15T21:53:02;20.23;;;16.65;;
43877;SDS011;29815;48.184;11.268;2022-11-15T21:55:33;19.17;;;14.88;;
43877;SDS011;29815;48.184;11.268;2022-11-15T21:58:06;17.98;;;14.20;;
43877;SDS011;29815;48.184;11.268;2022-11-15T22:00:35;15.80;;;14.15;;
43877;SDS011;29815;48.184;11.268;2022-11-15T22:03:22;17.92;;;12.98;;
43877;SDS011;29815;48.184;11.268;2022-11-15T22:05:52;17.55;;;13.48;;
43877;SDS011;29815;48.184;11.268;2022-11-15T22:08:21;16.45;;;13.38;;
43877;SDS011;29815;48.184;11.268;2022-11-15T22:10:52;19.02;;;13.68;;
43877;SDS011;29815;48.184;11.268;2022-11-15T22:13:23;18.90;;;12.73;;
43877;SDS011;29815;48.184;11.268;2022-11-15T22:15:53;20.50;;;14.52;;
43877;SDS011;29815;48.184;11.268;2022-11-15T22:18:23;12.48;;;11.23;;
43877;SDS011;29815;48.184;11.268;2022-11-15T22:20:53;14.23;;;11.07;;
43877;SDS011;29815;48.184;11.268;2022-11-15T22:23:25;14.85;;;11.15;;
43877;SDS011;29815;48.184;11.268;2022-11-15T22:25:58;15.57;;;12.70;;
43877;SDS011;29815;48.184;11.268;2022-11-15T22:28:28;18.52;;;12.05;;
43877;SDS011;29815;48.184;11.268;2022-11-15T22:30:59;17.35;;;12.27;;
43877;SDS011;29815;48.184;11.268;2022-11-15T22:33:29;15.35;;;12.57;;
43877;SDS011;29815;48.184;11.268;2022-11-15T22:36:01;17.92;;;12.93;;
43877;SDS011;29815;48.184;11.268;2022-11-15T22:38:33;19.38;;;13.63;;
43877;SDS011;29815;48.184;11.268;2022-11-15T22:41:05;17.92;;;14.10;;
43877;SDS011;29815;48.184;11.268;2022-11-15T22:43:35;14.00;;;12.55;;
43877;SDS011;29815;48.184;11.268;2022-11-15T22:46:05;18.52;;;13.60;;
43877;SDS011;29815;48.184;11.268;2022-11-15T22:48:36;17.88;;;13.35;;
43877;SDS011;29815;48.184;11.268;2022-11-15T22:51:07;18.50;;;13.05;;
43877;SDS011;29815;48.184;11.268;2022-11-15T22:53:37;17.95;;;13.05;;
43877;SDS011;29815;48.184;11.268;2022-11-15T22:56:09;16.55;;;12.73;;
43877;SDS011;29815;48.184;11.268;2022-11-15T22:58:45;21.15;;;13.68;;
43877;SDS011;29815;48.184;11.268;2022-11-15T23:01:17;17.25;;;13.43;;
43877;SDS011;29815;48.184;11.268;2022-11-15T23:03:49;16.52;;;12.82;;
43877;SDS011;29815;48.184;11.268;2022-11-15T23:06:19;15.57;;;12.35;;
43877;SDS011;29815;48.184;11.268;2022-11-15T23:08:49;19.05;;;13.77;;
43877;SDS011;29815;48.184;11.268;2022-11-15T23:11:20;21.52;;;14.68;;
43877;SDS011;29815;48.184;11.268;2022-11-15T23:14:06;19.52;;;15.00;;
43877;SDS011;29815;48.184;11.268;2022-11-15T23:16:35;20.23;;;15.63;;
43877;SDS011;29815;48.184;11.268;2022-11-15T23:19:06;20.20;;;15.65;;
43877;SDS011;29815;48.184;11.268;2022-11-15T23:21:39;22.13;;;17.03;;
43877;SDS011;29815;48.184;11.268;2022-11-15T23:24:29;21.63;;;15.68;;
43877;SDS011;29815;48.184;11.268;2022-11-15T23:27:02;20.90;;;16.23;;
43877;SDS011;29815;48.184;11.268;2022-11-15T23:29:35;24.95;;;19.50;;
43877;SDS011;29815;48.184;11.268;2022-11-15T23:32:18;23.15;;;17.65;;
43877;SDS011;29815;48.184;11.268;2022-11-15T23:35:06;25.33;;;16.98;;
43877;SDS011;29815;48.184;11.268;2022-11-15T23:37:39;22.15;;;17.02;;
43877;SDS011;29815;48.184;11.268;2022-11-15T23:40:09;24.38;;;17.25;;
43877;SDS011;29815;48.184;11.268;2022-11-15T23:42:41;22.15;;;17.75;;
43877;SDS011;29815;48.184;11.268;2022-11-15T23:45:11;23.80;;;17.35;;
43877;SDS011;29815;48.184;11.268;2022-11-15T23:47:41;25.13;;;15.70;;
43877;SDS011;29815;48.184;11.268;2022-11-15T23:50:11;21.83;;;16.85;;
43877;SDS011;29815;48.184;11.268;2022-11-15T23:52:41;20.58;;;14.98;;
43877;SDS011;29815;48.184;11.268;2022-11-15T23:55:11;22.45;;;16.60;;
43877;SDS011;29815;48.184;11.268;2022-11-15T23:57:41;25.05;;;17.05;;
